Time;durP1;ratioP1;P1;durP2;ratioP2;P2;SDS_P1;SDS_P2;PMS_P1;PMS_P2;Temp;Humidity;BMP_temperature;BMP_pressure;BME280_temperature;BME280_humidity;BME280_pressure;Samples;Min_cycle;Max_cycle;Signal;HPM_P1;HPM_P2
2022/01/12 00:00:38;;;;;;;51.30;21.70;;;;;;;;;;6266371;28;20048;-84
2022/01/12 00:03:38;;;;;;;40.70;19.10;;;;;;;;;;6244928;28;20309;-83
2022/01/12 00:06:39;;;;;;;47.60;22.30;;;;;;;;;;6243879;28;20070;-84
2022/01/12 00:09:39;;;;;;;54.42;20.55;;;;;;;;;;6253745;28;20420;-84
2022/01/12 00:12:40;;;;;;;55.80;22.60;;;;;;;;;;6245680;28;20436;-84
2022/01/12 00:15:40;;;;;;;73.57;26.90;;;;;;;;;;6244768;28;20093;-83
2022/01/12 00:18:42;;;;;;;56.83;22.77;;;;;;;;;;6243601;28;20017;-85
2022/01/12 00:21:42;;;;;;;64.32;25.92;;;;;;;;;;6260296;28;20500;-84
2022/01/12 00:34:30;;;;;;;68.85;28.75;;;;;;;;;;6244955;28;20124;-84
2022/01/12 00:37:30;;;;;;;52.03;22.42;;;;;;;;;;6244773;28;20032;-84
2022/01/12 00:40:31;;;;;;;57.05;20.80;;;;;;;;;;6243315;28;20045;-84
2022/01/12 00:43:34;;;;;;;49.97;20.92;;;;;;;;;;6243415;28;20021;-83
2022/01/12 00:46:34;;;;;;;59.55;22.33;;;;;;;;;;6266214;28;20018;-84
2022/01/12 00:49:34;;;;;;;51.33;23.08;;;;;;;;;;6267953;28;20032;-84
2022/01/12 00:52:35;;;;;;;57.72;24.30;;;;;;;;;;6269558;28;20096;-83
2022/01/12 00:55:36;;;;;;;52.63;21.67;;;;;;;;;;6271177;28;20028;-82
2022/01/12 00:58:36;;;;;;;58.30;21.92;;;;;;;;;;6272771;28;20025;-82
2022/01/12 01:01:36;;;;;;;53.42;22.73;;;;;;;;;;6251888;28;20123;-82
2022/01/12 01:04:37;;;;;;;57.15;23.40;;;;;;;;;;6247281;28;20034;-82
2022/01/12 01:07:37;;;;;;;50.13;22.77;;;;;;;;;;6249039;28;20432;-83
2022/01/12 01:10:45;;;;;;;52.20;22.23;;;;;;;;;;6258033;28;20056;-83
2022/01/12 01:13:57;;;;;;;57.70;23.25;;;;;;;;;;6248455;28;20449;-82
2022/01/12 01:25:27;;;;;;;60.35;23.38;;;;;;;;;;6247198;28;20167;-82
2022/01/12 01:27:05;;;;;;;53.45;20.70;;;;;;;;;;6256246;28;20041;-82
2022/01/12 01:30:05;;;;;;;59.00;21.15;;;;;;;;;;6273140;28;20116;-83
2022/01/12 01:33:08;;;;;;;45.30;17.83;;;;;;;;;;6271802;28;20021;-83
2022/01/12 01:36:08;;;;;;;34.60;15.23;;;;;;;;;;6273092;28;20021;-83
2022/01/12 01:39:09;;;;;;;44.17;20.38;;;;;;;;;;6271845;28;20382;-83
2022/01/12 01:42:20;;;;;;;33.28;15.05;;;;;;;;;;6273240;28;20373;-83
2022/01/12 01:55:30;;;;;;;23.60;10.88;;;;;;;;;;6272811;28;20066;-82
2022/01/12 01:58:30;;;;;;;29.83;10.85;;;;;;;;;;6295109;28;20027;-82
2022/01/12 02:01:30;;;;;;;21.60;7.68;;;;;;;;;;6252725;28;20021;-82
2022/01/12 02:04:31;;;;;;;28.43;10.83;;;;;;;;;;6255573;28;20033;-82
2022/01/12 02:07:34;;;;;;;31.40;12.82;;;;;;;;;;6246550;28;20037;-82
2022/01/12 02:10:35;;;;;;;24.95;11.43;;;;;;;;;;6255086;28;20037;-82
2022/01/12 02:13:36;;;;;;;20.80;9.65;;;;;;;;;;6245806;28;20017;-82
2022/01/12 02:16:49;;;;;;;34.17;10.52;;;;;;;;;;6245844;28;20127;-82
2022/01/12 02:36:27;;;;;;;30.05;11.48;;;;;;;;;;6247747;28;20429;-83
2022/01/12 02:42:57;;;;;;;31.83;12.90;;;;;;;;;;6247193;28;20400;-82
2022/01/12 02:55:54;;;;;;;33.05;11.48;;;;;;;;;;6263821;28;20115;-82
2022/01/12 02:58:56;;;;;;;28.95;12.60;;;;;;;;;;6271875;28;20541;-82
2022/01/12 03:05:46;;;;;;;34.08;13.10;;;;;;;;;;6247972;28;20038;-82
2022/01/12 03:08:42;;;;;;;26.80;12.27;;;;;;;;;;6246504;28;20033;-82
2022/01/12 03:11:42;;;;;;;21.98;10.23;;;;;;;;;;6246357;28;20392;-82
2022/01/12 03:14:43;;;;;;;28.50;12.95;;;;;;;;;;6248668;28;20059;-82
2022/01/12 03:17:43;;;;;;;35.70;13.07;;;;;;;;;;6245852;28;20029;-82
2022/01/12 03:20:45;;;;;;;22.67;10.13;;;;;;;;;;6257148;28;20025;-82
2022/01/12 03:23:45;;;;;;;;;;;;;;;;;;6268102;28;20107;-82
2022/01/12 03:26:46;;;;;;;29.80;12.80;;;;;;;;;;6274882;28;19908;-82
2022/01/12 03:29:50;;;;;;;31.50;12.55;;;;;;;;;;6270136;28;20306;-82
2022/01/12 03:33:02;;;;;;;27.63;13.10;;;;;;;;;;6269345;28;20020;-82
2022/01/12 03:39:21;;;;;;;27.52;12.98;;;;;;;;;;6268040;28;20300;-82
2022/01/12 03:42:22;;;;;;;23.50;12.98;;;;;;;;;;6269237;28;20055;-82
2022/01/12 03:45:22;;;;;;;31.27;12.45;;;;;;;;;;6256519;28;20037;-82
2022/01/12 03:48:22;;;;;;;26.88;12.90;;;;;;;;;;6244078;28;20440;-82
2022/01/12 03:51:22;;;;;;;32.60;14.40;;;;;;;;;;6258793;28;20029;-82
2022/01/12 03:54:23;;;;;;;27.57;13.13;;;;;;;;;;6268263;28;20043;-82
2022/01/12 03:57:23;;;;;;;35.63;14.27;;;;;;;;;;6283610;28;20017;-81
2022/01/12 04:00:23;;;;;;;29.25;12.63;;;;;;;;;;6273675;28;20481;-81
2022/01/12 04:03:26;;;;;;;28.75;12.27;;;;;;;;;;6245433;28;20489;-82
2022/01/12 04:09:46;;;;;;;32.22;11.68;;;;;;;;;;6245178;28;20476;-82
2022/01/12 04:12:46;;;;;;;30.00;12.18;;;;;;;;;;6268755;28;20024;-82
2022/01/12 04:15:49;;;;;;;28.90;14.05;;;;;;;;;;6269647;28;20384;-82
2022/01/12 04:18:49;;;;;;;33.00;14.60;;;;;;;;;;6268174;28;20025;-82
2022/01/12 04:21:50;;;;;;;35.95;13.73;;;;;;;;;;6263966;28;20459;-82
2022/01/12 04:24:50;;;;;;;33.83;13.53;;;;;;;;;;6267779;28;20029;-83
2022/01/12 04:27:51;;;;;;;32.47;13.93;;;;;;;;;;6254562;28;20491;-82
2022/01/12 04:30:52;;;;;;;32.93;14.63;;;;;;;;;;6247655;28;20061;-82
2022/01/12 04:33:52;;;;;;;29.50;13.75;;;;;;;;;;6250083;28;20418;-82
2022/01/12 04:36:52;;;;;;;31.92;13.25;;;;;;;;;;6248493;28;20021;-82
2022/01/12 04:39:52;;;;;;;24.42;11.88;;;;;;;;;;6249323;28;20408;-82
2022/01/12 04:42:54;;;;;;;32.30;15.07;;;;;;;;;;6248767;28;20083;-82
2022/01/12 04:49:08;;;;;;;34.08;14.48;;;;;;;;;;6249889;28;20555;-82
2022/01/12 04:52:08;;;;;;;25.67;13.40;;;;;;;;;;6286434;28;20046;-82
2022/01/12 04:55:08;;;;;;;27.95;12.95;;;;;;;;;;6298809;28;20023;-82
2022/01/12 04:58:10;;;;;;;27.52;11.07;;;;;;;;;;6278356;28;20439;-82
2022/01/12 05:01:21;;;;;;;34.17;13.10;;;;;;;;;;6265212;28;20036;-82
2022/01/12 05:08:09;;;;;;;31.83;14.38;;;;;;;;;;6273191;28;20025;-81
2022/01/12 05:14:22;;;;;;;29.85;15.13;;;;;;;;;;6248979;28;20022;-82
2022/01/12 05:17:23;;;;;;;36.97;14.85;;;;;;;;;;6247819;28;20052;-82
2022/01/12 05:20:23;;;;;;;34.55;14.73;;;;;;;;;;6248041;28;20032;-82
2022/01/12 05:23:24;;;;;;;37.20;15.60;;;;;;;;;;6251240;28;20389;-82
2022/01/12 05:26:24;;;;;;;32.70;13.85;;;;;;;;;;6249953;28;20366;-82
2022/01/12 05:29:24;;;;;;;44.80;17.23;;;;;;;;;;6256744;28;20030;-82
2022/01/12 05:32:26;;;;;;;35.50;15.27;;;;;;;;;;6247815;28;20390;-82
2022/01/12 05:35:31;;;;;;;34.17;14.30;;;;;;;;;;6247089;28;20014;-82
2022/01/12 05:38:32;;;;;;;34.17;12.85;;;;;;;;;;6248222;28;20052;-82
2022/01/12 05:41:32;;;;;;;36.38;16.77;;;;;;;;;;6267715;28;20056;-82
2022/01/12 05:44:35;;;;;;;31.20;13.23;;;;;;;;;;6266161;28;20028;-82
2022/01/12 05:50:39;;;;;;;36.53;18.70;;;;;;;;;;6270814;28;20021;-82
2022/01/12 05:53:39;;;;;;;45.95;18.10;;;;;;;;;;6247299;28;20115;-82
2022/01/12 05:56:39;;;;;;;31.60;12.32;;;;;;;;;;6268454;28;20016;-82
2022/01/12 05:59:40;;;;;;;34.42;14.55;;;;;;;;;;6248374;28;20418;-82
2022/01/12 06:02:40;;;;;;;46.37;17.87;;;;;;;;;;6248329;28;20018;-81
2022/01/12 06:05:40;;;;;;;32.38;14.73;;;;;;;;;;6246311;28;20100;-82
2022/01/12 06:08:41;;;;;;;34.45;14.85;;;;;;;;;;6248105;28;20140;-82
2022/01/12 06:11:41;;;;;;;36.63;14.77;;;;;;;;;;6257173;28;20017;-82
2022/01/12 06:14:41;;;;;;;37.97;15.93;;;;;;;;;;6271903;28;20572;-82
2022/01/12 06:17:42;;;;;;;30.90;15.95;;;;;;;;;;6270027;28;20025;-83
2022/01/12 06:20:42;;;;;;;29.55;13.88;;;;;;;;;;6252258;28;20074;-82
2022/01/12 06:23:42;;;;;;;41.97;14.82;;;;;;;;;;6262305;28;20027;-82
2022/01/12 06:26:43;;;;;;;39.20;14.90;;;;;;;;;;6268542;28;20075;-82
2022/01/12 06:29:51;;;;;;;37.77;15.40;;;;;;;;;;6254543;28;20024;-82
2022/01/12 06:32:53;;;;;;;34.10;15.02;;;;;;;;;;6264196;28;20040;-82
2022/01/12 06:35:53;;;;;;;32.80;14.43;;;;;;;;;;6269803;28;20060;-82
2022/01/12 06:38:53;;;;;;;33.75;14.13;;;;;;;;;;6272029;28;20662;-82
2022/01/12 06:41:55;;;;;;;32.83;14.90;;;;;;;;;;6245680;28;20030;-82
2022/01/12 06:44:55;;;;;;;36.08;15.63;;;;;;;;;;6246550;28;20485;-82
2022/01/12 06:47:55;;;;;;;36.05;14.20;;;;;;;;;;6247899;28;20043;-82
2022/01/12 06:50:56;;;;;;;32.63;15.30;;;;;;;;;;6259977;28;20123;-82
2022/01/12 06:53:56;;;;;;;44.92;17.45;;;;;;;;;;6258629;28;20032;-82
2022/01/12 06:56:56;;;;;;;42.90;19.48;;;;;;;;;;6259613;28;20006;-82
2022/01/12 06:59:57;;;;;;;28.52;13.88;;;;;;;;;;6252696;28;20039;-82
2022/01/12 07:02:58;;;;;;;40.90;19.00;;;;;;;;;;6250679;28;20025;-82
2022/01/12 07:05:58;;;;;;;31.98;14.25;;;;;;;;;;6257534;28;20128;-82
2022/01/12 07:08:58;;;;;;;41.60;16.48;;;;;;;;;;6249177;28;20056;-82
2022/01/12 07:11:58;;;;;;;34.17;14.98;;;;;;;;;;6254904;28;20026;-82
2022/01/12 07:14:59;;;;;;;39.83;14.70;;;;;;;;;;6257020;28;20059;-82
2022/01/12 07:18:03;;;;;;;30.52;16.35;;;;;;;;;;6254096;28;20396;-82
2022/01/12 07:21:03;;;;;;;39.58;17.45;;;;;;;;;;6260043;28;20025;-82
2022/01/12 07:24:05;;;;;;;34.75;14.30;;;;;;;;;;6249057;28;20384;-82
2022/01/12 07:27:05;;;;;;;43.85;20.05;;;;;;;;;;6254217;28;20021;-82
2022/01/12 07:30:06;;;;;;;39.95;17.67;;;;;;;;;;6251728;28;20477;-82
2022/01/12 07:33:06;;;;;;;29.02;14.48;;;;;;;;;;6249867;28;20482;-82
2022/01/12 07:36:06;;;;;;;42.42;16.92;;;;;;;;;;6253607;28;20017;-82
2022/01/12 07:39:07;;;;;;;32.22;14.90;;;;;;;;;;6259983;28;20045;-82
2022/01/12 07:42:07;;;;;;;24.63;12.10;;;;;;;;;;6261823;28;20013;-82
2022/01/12 07:45:08;;;;;;;38.83;16.50;;;;;;;;;;6251728;28;20021;-82
2022/01/12 07:48:08;;;;;;;28.65;11.23;;;;;;;;;;6250302;28;20029;-82
2022/01/12 07:51:08;;;;;;;46.28;19.70;;;;;;;;;;6255193;28;20470;-82
2022/01/12 07:54:09;;;;;;;42.05;18.88;;;;;;;;;;6251651;28;20096;-82
2022/01/12 07:57:09;;;;;;;37.83;14.90;;;;;;;;;;6260266;28;20062;-82
2022/01/12 08:00:09;;;;;;;32.53;13.82;;;;;;;;;;6263756;28;20016;-81
2022/01/12 08:03:12;;;;;;;26.65;12.85;;;;;;;;;;6254464;28;20017;-82
2022/01/12 08:06:12;;;;;;;33.05;15.25;;;;;;;;;;6249963;28;20025;-82
2022/01/12 08:09:12;;;;;;;26.17;12.55;;;;;;;;;;6250624;28;20028;-82
2022/01/12 08:12:13;;;;;;;38.03;16.70;;;;;;;;;;6258618;28;20022;-82
2022/01/12 08:15:13;;;;;;;34.13;13.87;;;;;;;;;;6257027;28;20070;-82
2022/01/12 08:18:14;;;;;;;41.10;18.87;;;;;;;;;;6253766;28;20098;-82
2022/01/12 08:21:14;;;;;;;36.42;17.88;;;;;;;;;;6258057;28;20131;-82
2022/01/12 08:24:16;;;;;;;67.57;31.98;;;;;;;;;;6256258;28;20087;-82
2022/01/12 08:27:16;;;;;;;55.35;22.67;;;;;;;;;;6261545;28;20534;-82
2022/01/12 08:30:18;;;;;;;56.47;23.55;;;;;;;;;;6250120;28;20028;-82
2022/01/12 08:33:19;;;;;;;58.25;24.27;;;;;;;;;;6260211;28;20017;-82
2022/01/12 08:36:19;;;;;;;50.55;18.75;;;;;;;;;;6252822;28;20357;-82
2022/01/12 08:39:19;;;;;;;37.20;14.25;;;;;;;;;;6253434;28;20045;-82
2022/01/12 08:42:19;;;;;;;44.80;20.27;;;;;;;;;;6262380;28;20025;-82
2022/01/12 08:45:20;;;;;;;36.33;16.95;;;;;;;;;;6242668;28;20026;-82
2022/01/12 08:48:21;;;;;;;41.85;20.52;;;;;;;;;;6253190;28;20028;-82
2022/01/12 08:51:21;;;;;;;38.53;19.58;;;;;;;;;;6249651;28;20036;-82
2022/01/12 08:54:22;;;;;;;41.28;17.65;;;;;;;;;;6249147;28;20025;-82
2022/01/12 08:57:22;;;;;;;44.13;19.83;;;;;;;;;;6250346;28;20092;-82
2022/01/12 09:00:22;;;;;;;33.28;15.70;;;;;;;;;;6250438;28;20030;-83
2022/01/12 09:03:23;;;;;;;31.23;15.65;;;;;;;;;;6258295;28;20025;-83
2022/01/12 09:06:23;;;;;;;30.27;11.85;;;;;;;;;;6256252;28;20029;-82
2022/01/12 09:09:24;;;;;;;24.85;10.93;;;;;;;;;;6253813;28;20025;-82
2022/01/12 09:12:25;;;;;;;26.20;12.00;;;;;;;;;;6252170;28;20025;-83
2022/01/12 09:15:25;;;;;;;30.17;11.38;;;;;;;;;;6258877;28;20052;-82
2022/01/12 09:18:26;;;;;;;33.47;15.10;;;;;;;;;;6255950;28;20029;-82
2022/01/12 09:21:28;;;;;;;25.60;10.15;;;;;;;;;;6261138;28;20033;-82
2022/01/12 09:24:28;;;;;;;;;;;;;;;;;;6247265;28;20127;-82
2022/01/12 09:27:28;;;;;;;26.42;10.90;;;;;;;;;;6251665;28;19909;-82
2022/01/12 09:30:29;;;;;;;26.15;10.70;;;;;;;;;;6248093;28;20021;-82
2022/01/12 09:33:29;;;;;;;26.83;12.23;;;;;;;;;;6247827;28;20028;-82
2022/01/12 09:36:30;;;;;;;28.10;12.43;;;;;;;;;;6245480;28;20025;-82
2022/01/12 09:39:31;;;;;;;26.25;12.18;;;;;;;;;;6271434;28;20611;-82
2022/01/12 09:42:32;;;;;;;26.10;12.50;;;;;;;;;;6264325;28;20532;-82
2022/01/12 09:45:33;;;;;;;31.80;12.07;;;;;;;;;;6269300;28;20017;-82
2022/01/12 09:48:34;;;;;;;33.28;13.88;;;;;;;;;;6271076;28;20079;-82
2022/01/12 09:51:34;;;;;;;30.30;13.85;;;;;;;;;;6267101;28;20242;-82
2022/01/12 09:54:36;;;;;;;27.67;10.88;;;;;;;;;;6259397;28;20021;-82
2022/01/12 09:57:37;;;;;;;27.70;10.45;;;;;;;;;;6261179;28;20074;-83
2022/01/12 10:00:37;;;;;;;23.00;9.38;;;;;;;;;;6258062;28;20033;-83
2022/01/12 10:03:37;;;;;;;24.33;10.35;;;;;;;;;;6260222;28;20052;-83
2022/01/12 10:06:39;;;;;;;28.52;11.25;;;;;;;;;;6256254;28;20100;-83
2022/01/12 10:09:44;;;;;;;23.38;10.88;;;;;;;;;;6248353;28;20481;-83
2022/01/12 10:12:51;;;;;;;28.05;11.63;;;;;;;;;;6253903;28;20017;-83
2022/01/12 10:15:52;;;;;;;22.45;10.20;;;;;;;;;;6264753;28;20477;-83
2022/01/12 10:18:54;;;;;;;24.88;10.88;;;;;;;;;;6265064;28;20028;-83
2022/01/12 10:21:55;;;;;;;23.00;10.10;;;;;;;;;;6257078;28;20029;-83
2022/01/12 10:24:55;;;;;;;19.45;9.65;;;;;;;;;;6251800;28;20033;-83
2022/01/12 10:27:56;;;;;;;23.25;10.40;;;;;;;;;;6256055;28;20034;-83
2022/01/12 10:30:58;;;;;;;15.43;6.63;;;;;;;;;;6254315;28;20021;-83
2022/01/12 10:34:03;;;;;;;40.20;15.48;;;;;;;;;;6260650;28;20435;-83
2022/01/12 10:37:08;;;;;;;35.40;13.93;;;;;;;;;;6274989;28;20024;-83
2022/01/12 10:40:09;;;;;;;27.30;14.20;;;;;;;;;;6259002;28;20041;-83
2022/01/12 10:43:25;;;;;;;45.28;18.35;;;;;;;;;;6249325;28;20022;-83
2022/01/12 10:46:28;;;;;;;35.08;14.10;;;;;;;;;;6247781;28;20034;-84
2022/01/12 10:49:30;;;;;;;32.38;16.25;;;;;;;;;;6244733;28;20021;-84
2022/01/12 10:52:32;;;;;;;38.40;19.02;;;;;;;;;;6255458;28;20394;-84
2022/01/12 10:55:33;;;;;;;26.08;11.88;;;;;;;;;;6258603;28;20049;-84
2022/01/12 10:58:35;;;;;;;21.90;10.73;;;;;;;;;;6259157;28;20075;-84
2022/01/12 11:01:36;;;;;;;25.40;11.02;;;;;;;;;;6255984;28;20100;-84
2022/01/12 11:04:40;;;;;;;29.30;11.93;;;;;;;;;;6257048;28;20149;-84
2022/01/12 11:07:41;;;;;;;24.60;9.52;;;;;;;;;;6250349;28;20060;-84
2022/01/12 11:10:41;;;;;;;30.98;13.73;;;;;;;;;;6260611;28;20070;-84
2022/01/12 11:13:42;;;;;;;22.50;10.35;;;;;;;;;;6253691;28;20021;-84
2022/01/12 11:16:42;;;;;;;35.97;12.98;;;;;;;;;;6261045;28;20108;-84
2022/01/12 11:20:03;;;;;;;27.55;12.02;;;;;;;;;;6259278;28;20043;-84
2022/01/12 11:23:06;;;;;;;28.05;12.35;;;;;;;;;;6247429;28;20044;-84
2022/01/12 11:26:12;;;;;;;26.40;11.23;;;;;;;;;;6268173;28;20029;-84
2022/01/12 11:29:12;;;;;;;27.70;12.18;;;;;;;;;;6241994;28;20029;-85
2022/01/12 11:32:20;;;;;;;41.67;17.08;;;;;;;;;;6242053;28;20103;-83
2022/01/12 11:35:24;;;;;;;35.38;11.93;;;;;;;;;;6257734;28;20102;-84
2022/01/12 11:38:26;;;;;;;34.47;15.07;;;;;;;;;;6256273;28;20068;-85
2022/01/12 11:41:28;;;;;;;31.23;13.73;;;;;;;;;;6258850;28;20600;-84
2022/01/12 11:44:34;;;;;;;23.70;11.30;;;;;;;;;;6248621;28;20025;-84
2022/01/12 11:47:42;;;;;;;102.78;43.90;;;;;;;;;;6250346;28;20037;-84
2022/01/12 11:50:51;;;;;;;36.75;15.63;;;;;;;;;;6251360;28;20086;-84
2022/01/12 11:53:54;;;;;;;36.33;12.82;;;;;;;;;;6263048;28;20677;-84
2022/01/12 11:56:55;;;;;;;32.53;11.75;;;;;;;;;;6250001;28;20372;-85
2022/01/12 11:59:55;;;;;;;33.58;15.48;;;;;;;;;;6248616;28;20024;-85
2022/01/12 12:02:55;;;;;;;42.47;18.33;;;;;;;;;;6243398;28;20029;-85
2022/01/12 12:05:56;;;;;;;38.05;14.27;;;;;;;;;;6260894;28;20112;-86
2022/01/12 12:08:57;;;;;;;36.80;16.17;;;;;;;;;;6253614;28;20043;-84
2022/01/12 12:11:58;;;;;;;81.32;35.28;;;;;;;;;;6250520;28;20053;-84
2022/01/12 12:14:59;;;;;;;28.40;13.07;;;;;;;;;;6249201;28;20708;-85
2022/01/12 12:18:04;;;;;;;41.73;15.07;;;;;;;;;;6245134;28;20045;-84
2022/01/12 12:21:04;;;;;;;33.83;14.55;;;;;;;;;;6255884;28;20299;-85
2022/01/12 12:24:08;;;;;;;30.42;13.95;;;;;;;;;;6249911;28;20020;-85
2022/01/12 12:27:10;;;;;;;31.77;18.48;;;;;;;;;;6253433;28;20022;-85
2022/01/12 12:30:11;;;;;;;28.08;12.20;;;;;;;;;;6255662;28;20048;-84
2022/01/12 12:33:13;;;;;;;49.95;23.48;;;;;;;;;;6255979;28;20028;-85
2022/01/12 12:36:15;;;;;;;24.63;10.80;;;;;;;;;;6264118;28;20215;-85
2022/01/12 12:39:15;;;;;;;18.35;7.43;;;;;;;;;;6257497;28;20059;-84
2022/01/12 12:42:16;;;;;;;32.03;15.57;;;;;;;;;;6263334;28;20277;-84
2022/01/12 12:45:17;;;;;;;27.92;11.35;;;;;;;;;;6251880;28;20022;-84
2022/01/12 12:48:19;;;;;;;38.45;14.73;;;;;;;;;;6260329;28;20393;-84
2022/01/12 12:51:19;;;;;;;47.72;17.15;;;;;;;;;;6253250;28;20009;-84
2022/01/12 12:54:20;;;;;;;45.13;17.20;;;;;;;;;;6256285;28;20028;-84
2022/01/12 12:57:21;;;;;;;34.92;16.67;;;;;;;;;;6253933;28;20024;-84
2022/01/12 13:00:25;;;;;;;57.97;21.60;;;;;;;;;;6257374;28;20054;-83
2022/01/12 13:03:25;;;;;;;38.85;17.63;;;;;;;;;;6268980;28;20032;-83
2022/01/12 13:06:28;;;;;;;58.50;21.00;;;;;;;;;;6256056;28;20021;-83
2022/01/12 13:09:28;;;;;;;56.97;23.15;;;;;;;;;;6256526;28;20031;-82
2022/01/12 13:12:34;;;;;;;40.05;15.48;;;;;;;;;;6264501;28;20013;-83
2022/01/12 13:15:36;;;;;;;53.80;22.30;;;;;;;;;;6249349;28;20092;-82
2022/01/12 13:18:41;;;;;;;55.17;20.95;;;;;;;;;;6256276;28;20069;-82
2022/01/12 13:21:42;;;;;;;35.35;13.60;;;;;;;;;;6255751;28;20144;-82
2022/01/12 13:24:43;;;;;;;30.00;12.48;;;;;;;;;;6253740;28;20017;-82
2022/01/12 13:27:46;;;;;;;30.03;13.47;;;;;;;;;;6247271;28;20029;-81
2022/01/12 13:30:51;;;;;;;13.88;6.93;;;;;;;;;;6256614;28;20059;-81
2022/01/12 13:33:52;;;;;;;31.67;16.40;;;;;;;;;;6248532;28;20030;-82
2022/01/12 13:36:52;;;;;;;36.20;17.70;;;;;;;;;;6248213;28;20032;-82
2022/01/12 13:40:12;;;;;;;53.85;17.85;;;;;;;;;;6248364;28;20485;-82
2022/01/12 13:43:12;;;;;;;41.70;18.67;;;;;;;;;;6248235;28;20037;-83
2022/01/12 13:46:14;;;;;;;37.45;11.30;;;;;;;;;;6249797;28;20009;-82
2022/01/12 13:52:16;;;;;;;40.45;17.45;;;;;;;;;;6255963;28;20436;-82
2022/01/12 13:55:16;;;;;;;30.95;15.43;;;;;;;;;;6247739;28;20005;-82
2022/01/12 13:58:17;;;;;;;28.27;15.02;;;;;;;;;;6271283;28;20128;-82
2022/01/12 14:01:17;;;;;;;38.33;17.10;;;;;;;;;;6267244;28;20048;-82
2022/01/12 14:04:38;;;;;;;47.60;19.38;;;;;;;;;;6256667;28;20096;-82
2022/01/12 14:07:40;;;;;;;56.53;20.73;;;;;;;;;;6253498;28;20028;-81
2022/01/12 14:10:59;;;;;;;51.50;19.52;;;;;;;;;;6246898;28;20084;-81
2022/01/12 14:14:00;;;;;;;43.40;18.25;;;;;;;;;;6262838;28;20424;-81
2022/01/12 14:17:00;;;;;;;42.20;19.25;;;;;;;;;;6250138;28;20006;-81
2022/01/12 14:20:02;;;;;;;57.25;22.35;;;;;;;;;;6247629;28;20017;-81
2022/01/12 14:23:05;;;;;;;48.97;22.52;;;;;;;;;;6252640;28;20044;-81
2022/01/12 14:26:06;;;;;;;52.45;21.70;;;;;;;;;;6252112;28;20033;-82
2022/01/12 14:29:07;;;;;;;46.00;17.83;;;;;;;;;;6269791;28;20025;-82
2022/01/12 14:32:07;;;;;;;58.03;24.87;;;;;;;;;;6271349;28;20173;-82
2022/01/12 14:35:09;;;;;;;55.38;25.23;;;;;;;;;;6258759;28;20026;-82
2022/01/12 14:38:09;;;;;;;61.17;28.98;;;;;;;;;;6257895;28;20041;-82
2022/01/12 14:41:10;;;;;;;72.55;30.27;;;;;;;;;;6261265;28;20385;-82
2022/01/12 14:44:10;;;;;;;55.85;23.67;;;;;;;;;;6248786;28;20044;-83
2022/01/12 14:47:10;;;;;;;59.90;24.45;;;;;;;;;;6271788;28;20032;-82
2022/01/12 14:50:11;;;;;;;45.17;22.77;;;;;;;;;;6274203;28;20488;-82
2022/01/12 14:53:11;;;;;;;61.78;22.70;;;;;;;;;;6287698;28;20489;-82
2022/01/12 14:56:11;;;;;;;65.13;27.10;;;;;;;;;;6270622;28;20329;-82
2022/01/12 14:59:12;;;;;;;46.53;17.13;;;;;;;;;;6272051;28;20036;-82
2022/01/12 15:02:12;;;;;;;61.40;23.83;;;;;;;;;;6270724;28;20032;-82
2022/01/12 15:05:12;;;;;;;90.70;32.40;;;;;;;;;;6259827;28;20032;-82
2022/01/12 15:08:14;;;;;;;66.28;25.05;;;;;;;;;;6250043;28;20033;-82
2022/01/12 15:11:14;;;;;;;73.22;30.52;;;;;;;;;;6255274;28;20021;-82
2022/01/12 15:14:31;;;;;;;88.47;33.65;;;;;;;;;;6270505;28;20017;-82
2022/01/12 15:17:31;;;;;;;96.85;35.42;;;;;;;;;;6248525;28;20014;-82
2022/01/12 15:20:31;;;;;;;63.95;26.63;;;;;;;;;;6260777;28;20060;-82
2022/01/12 15:23:32;;;;;;;59.15;26.17;;;;;;;;;;6269056;28;20027;-82
2022/01/12 15:26:32;;;;;;;57.58;27.38;;;;;;;;;;6255351;28;20017;-83
2022/01/12 15:29:32;;;;;;;58.63;26.25;;;;;;;;;;6263048;28;20039;-82
2022/01/12 15:32:33;;;;;;;80.75;29.98;;;;;;;;;;6262745;28;20385;-82
2022/01/12 15:35:35;;;;;;;97.63;40.03;;;;;;;;;;6246234;28;20032;-82
2022/01/12 15:38:35;;;;;;;78.30;29.30;;;;;;;;;;6261035;28;20072;-82
2022/01/12 15:41:36;;;;;;;85.85;36.28;;;;;;;;;;6249498;28;20031;-82
2022/01/12 15:44:36;;;;;;;85.50;35.50;;;;;;;;;;6245313;28;20053;-83
2022/01/12 15:47:36;;;;;;;93.57;35.33;;;;;;;;;;6247063;28;20021;-84
2022/01/12 15:50:37;;;;;;;88.70;37.10;;;;;;;;;;6252609;28;20017;-83
2022/01/12 15:53:37;;;;;;;146.40;57.47;;;;;;;;;;6260304;28;20025;-83
2022/01/12 15:56:38;;;;;;;133.03;57.07;;;;;;;;;;6255049;28;20152;-81
2022/01/12 15:59:38;;;;;;;120.85;52.83;;;;;;;;;;6260977;28;20028;-81
2022/01/12 16:02:38;;;;;;;99.20;39.90;;;;;;;;;;6251213;28;20022;-82
2022/01/12 16:05:39;;;;;;;104.40;47.38;;;;;;;;;;6249038;28;20377;-82
2022/01/12 16:08:39;;;;;;;116.30;44.60;;;;;;;;;;6262680;28;20020;-82
2022/01/12 16:11:41;;;;;;;73.03;32.40;;;;;;;;;;6250403;28;20027;-82
2022/01/12 16:14:41;;;;;;;103.15;42.72;;;;;;;;;;6249101;28;20385;-82
2022/01/12 16:17:46;;;;;;;115.23;50.80;;;;;;;;;;6254057;28;20048;-82
2022/01/12 16:20:46;;;;;;;105.25;47.88;;;;;;;;;;6250417;28;20021;-82
2022/01/12 16:23:46;;;;;;;114.68;46.33;;;;;;;;;;6257900;28;20018;-82
2022/01/12 16:26:48;;;;;;;107.13;41.90;;;;;;;;;;6255612;28;20017;-82
2022/01/12 16:29:49;;;;;;;101.53;44.47;;;;;;;;;;6251708;28;20115;-82
2022/01/12 16:32:49;;;;;;;117.63;45.35;;;;;;;;;;6255283;28;20013;-82
2022/01/12 16:35:50;;;;;;;156.50;63.17;;;;;;;;;;6250786;28;20100;-82
2022/01/12 16:38:52;;;;;;;135.50;60.97;;;;;;;;;;6252353;28;20049;-82
2022/01/12 16:41:52;;;;;;;138.35;61.58;;;;;;;;;;6259621;28;20032;-82
2022/01/12 16:44:52;;;;;;;127.50;54.25;;;;;;;;;;6251806;28;20018;-82
2022/01/12 16:47:53;;;;;;;78.65;30.70;;;;;;;;;;6254467;28;20025;-82
2022/01/12 16:50:53;;;;;;;106.75;40.15;;;;;;;;;;6246754;28;20124;-82
2022/01/12 16:53:54;;;;;;;80.88;35.00;;;;;;;;;;6252807;28;20025;-82
2022/01/12 16:56:54;;;;;;;72.07;30.10;;;;;;;;;;6268081;28;20024;-82
2022/01/12 16:59:54;;;;;;;41.00;19.80;;;;;;;;;;6252775;28;20022;-82
2022/01/12 17:02:54;;;;;;;47.40;22.73;;;;;;;;;;6244225;28;20026;-82
2022/01/12 17:05:55;;;;;;;44.17;18.00;;;;;;;;;;6242486;28;20036;-82
2022/01/12 17:08:55;;;;;;;50.95;22.77;;;;;;;;;;6248817;28;20120;-82
2022/01/12 17:11:55;;;;;;;71.18;30.23;;;;;;;;;;6250917;28;20033;-82
2022/01/12 17:14:55;;;;;;;84.97;33.72;;;;;;;;;;6261249;28;20430;-82
2022/01/12 17:18:09;;;;;;;57.13;25.50;;;;;;;;;;6266487;28;20021;-82
2022/01/12 17:21:10;;;;;;;48.67;24.88;;;;;;;;;;6261489;28;20095;-82
2022/01/12 17:24:16;;;;;;;77.25;33.65;;;;;;;;;;6261474;28;20045;-82
2022/01/12 17:27:17;;;;;;;110.85;42.10;;;;;;;;;;6265185;28;20036;-82
2022/01/12 17:30:18;;;;;;;107.65;45.15;;;;;;;;;;6248518;28;20029;-81
2022/01/12 17:33:19;;;;;;;104.13;41.15;;;;;;;;;;6254321;28;20021;-81
2022/01/12 17:36:31;;;;;;;58.05;29.80;;;;;;;;;;6248111;28;20025;-81
2022/01/12 17:39:39;;;;;;;106.32;43.13;;;;;;;;;;6264234;28;20138;-81
2022/01/12 17:42:40;;;;;;;65.05;29.77;;;;;;;;;;6253535;28;20032;-81
2022/01/12 17:45:40;;;;;;;80.67;38.63;;;;;;;;;;6254693;28;20017;-81
2022/01/12 17:48:42;;;;;;;75.40;34.20;;;;;;;;;;6265028;28;20337;-82
2022/01/12 17:51:46;;;;;;;27.75;17.75;;;;;;;;;;6288862;28;20067;-81
2022/01/12 17:54:46;;;;;;;71.35;32.17;;;;;;;;;;6265902;28;20022;-81
2022/01/12 17:57:47;;;;;;;75.03;34.25;;;;;;;;;;6284121;28;20036;-81
2022/01/12 18:00:47;;;;;;;58.58;24.25;;;;;;;;;;6293506;28;20388;-81
2022/01/12 18:03:48;;;;;;;80.78;33.22;;;;;;;;;;6270999;28;20298;-81
2022/01/12 18:06:48;;;;;;;59.97;27.65;;;;;;;;;;6271168;28;20432;-81
2022/01/12 18:09:48;;;;;;;71.55;31.13;;;;;;;;;;6262785;28;20032;-81
2022/01/12 18:12:49;;;;;;;74.53;33.38;;;;;;;;;;6263658;28;20087;-81
2022/01/12 18:15:55;;;;;;;72.35;34.25;;;;;;;;;;6261663;28;20179;-81
2022/01/12 18:18:59;;;;;;;55.42;22.73;;;;;;;;;;6248528;28;20060;-81
2022/01/12 18:22:01;;;;;;;61.13;27.13;;;;;;;;;;6253278;28;20477;-81
2022/01/12 18:25:02;;;;;;;40.30;21.30;;;;;;;;;;6263165;28;20025;-81
2022/01/12 18:28:03;;;;;;;66.63;28.70;;;;;;;;;;6269900;28;20120;-81
2022/01/12 18:31:03;;;;;;;57.65;24.52;;;;;;;;;;6264036;28;20021;-81
2022/01/12 18:34:03;;;;;;;50.83;21.45;;;;;;;;;;6270747;28;20048;-81
2022/01/12 18:37:04;;;;;;;62.47;29.37;;;;;;;;;;6272372;28;20409;-81
2022/01/12 18:40:14;;;;;;;55.35;26.58;;;;;;;;;;6271648;28;20053;-82
2022/01/12 18:43:15;;;;;;;59.50;28.05;;;;;;;;;;6264412;28;20346;-81
2022/01/12 18:46:15;;;;;;;54.78;27.30;;;;;;;;;;6261732;28;20111;-81
2022/01/12 18:49:16;;;;;;;69.60;30.43;;;;;;;;;;6246091;28;20025;-82
2022/01/12 18:52:16;;;;;;;28.33;15.75;;;;;;;;;;6261455;28;20044;-81
2022/01/12 18:55:16;;;;;;;46.15;22.38;;;;;;;;;;6246322;28;20048;-81
2022/01/12 18:58:17;;;;;;;73.55;31.50;;;;;;;;;;6283924;28;20023;-81